createdAt,value
2023-03-17T00:00:25.327Z,4.30
2023-03-17T00:01:25.295Z,4.30
2023-03-17T00:02:25.325Z,4.50
2023-03-17T00:03:25.270Z,4.00
2023-03-17T00:04:25.244Z,4.10
2023-03-17T00:05:25.196Z,4.00
2023-03-17T00:06:25.166Z,3.70
2023-03-17T00:07:25.140Z,4.30
2023-03-17T00:08:25.109Z,4.20
2023-03-17T00:09:25.083Z,4.00
2023-03-17T00:10:25.089Z,3.80
2023-03-17T00:11:25.036Z,3.70
2023-03-17T00:12:25.006Z,3.40
2023-03-17T00:13:24.982Z,3.90
2023-03-17T00:14:24.952Z,4.40
2023-03-17T00:15:24.927Z,3.90
2023-03-17T00:16:24.905Z,4.10
2023-03-17T00:17:24.877Z,3.90
2023-03-17T00:18:24.851Z,3.90
2023-03-17T00:19:24.822Z,4.20
2023-03-17T00:20:24.794Z,3.70
2023-03-17T00:21:24.777Z,3.80
2023-03-17T00:22:24.745Z,3.70
2023-03-17T00:23:24.719Z,4.00
2023-03-17T00:24:24.692Z,4.20
2023-03-17T00:25:24.662Z,4.10
2023-03-17T00:26:24.665Z,3.80
2023-03-17T00:27:24.614Z,3.90
2023-03-17T00:28:24.596Z,3.70
2023-03-17T00:29:24.564Z,3.70
2023-03-17T00:30:24.546Z,3.80
2023-03-17T00:31:24.558Z,3.70
2023-03-17T00:32:24.488Z,4.70
2023-03-17T00:33:24.459Z,3.70
2023-03-17T00:34:24.432Z,3.70
2023-03-17T00:35:24.489Z,3.70
2023-03-17T00:36:24.378Z,4.00
2023-03-17T00:37:24.351Z,4.00
2023-03-17T00:38:24.328Z,3.90
2023-03-17T00:39:24.301Z,3.70
2023-03-17T00:40:24.272Z,3.80
2023-03-17T00:41:24.249Z,3.70
2023-03-17T00:42:24.243Z,3.50
2023-03-17T00:43:24.208Z,3.80
2023-03-17T00:44:24.221Z,3.90
2023-03-17T00:45:24.137Z,3.80
2023-03-17T00:46:24.143Z,3.60
2023-03-17T00:47:24.089Z,3.60
2023-03-17T00:48:24.056Z,3.70
2023-03-17T00:49:24.044Z,3.50
2023-03-17T00:50:23.999Z,3.90
2023-03-17T00:51:23.977Z,4.00
2023-03-17T00:52:23.953Z,3.90
2023-03-17T00:53:23.926Z,3.90
2023-03-17T00:54:23.895Z,3.90
2023-03-17T00:55:23.882Z,4.10
2023-03-17T00:56:23.844Z,4.30
2023-03-17T00:57:23.828Z,3.90
2023-03-17T00:58:23.826Z,3.80
2023-03-17T00:59:23.766Z,3.50
2023-03-17T01:00:23.736Z,4.00
2023-03-17T01:01:23.802Z,4.30
2023-03-17T01:02:23.752Z,3.70
2023-03-17T01:03:23.662Z,3.90
2023-03-17T01:04:23.631Z,4.30
2023-03-17T01:05:23.610Z,3.80
2023-03-17T01:06:23.581Z,4.10
2023-03-17T01:07:23.555Z,4.10
2023-03-17T01:08:23.531Z,3.70
2023-03-17T01:09:23.510Z,3.80
2023-03-17T01:10:23.474Z,4.10
2023-03-17T01:11:23.452Z,3.60
2023-03-17T01:12:23.421Z,3.80
2023-03-17T01:13:23.401Z,3.70
2023-03-17T01:14:23.396Z,3.80
2023-03-17T01:15:23.346Z,3.80
2023-03-17T01:16:23.368Z,3.50
2023-03-17T01:17:23.293Z,3.50
2023-03-17T01:18:23.345Z,3.30
2023-03-17T01:19:23.240Z,3.10
2023-03-17T01:20:23.207Z,3.70
2023-03-17T01:21:23.192Z,3.70
2023-03-17T01:22:23.162Z,3.70
2023-03-17T01:23:23.155Z,3.50
2023-03-17T01:24:23.109Z,3.00
2023-03-17T01:25:23.080Z,3.30
2023-03-17T01:26:25.723Z,3.70
2023-03-17T01:27:23.032Z,3.60
2023-03-17T01:28:23.000Z,3.00
2023-03-17T01:29:22.980Z,3.40
2023-03-17T01:30:22.971Z,3.50
2023-03-17T01:31:23.059Z,3.80
2023-03-17T01:32:22.905Z,3.20
2023-03-17T01:33:22.874Z,3.10
2023-03-17T01:34:22.843Z,3.40
2023-03-17T01:35:22.824Z,3.10
2023-03-17T01:36:22.790Z,3.20
2023-03-17T01:37:22.770Z,2.90
2023-03-17T01:38:22.743Z,3.30
2023-03-17T01:39:22.728Z,3.10
2023-03-17T01:40:22.685Z,3.50
2023-03-17T01:41:22.662Z,3.50
2023-03-17T01:42:22.638Z,3.20
2023-03-17T01:43:22.609Z,3.60
2023-03-17T01:44:22.582Z,3.40
2023-03-17T01:45:22.562Z,3.10
2023-03-17T01:46:22.595Z,3.10
2023-03-17T01:47:22.504Z,3.50
2023-03-17T01:48:22.478Z,3.30
2023-03-17T01:49:22.458Z,3.30
2023-03-17T01:50:22.423Z,3.40
2023-03-17T01:51:22.395Z,3.70
2023-03-17T01:52:22.386Z,3.10
2023-03-17T01:53:22.354Z,3.20
2023-03-17T01:54:22.312Z,3.30
2023-03-17T01:55:22.294Z,2.90
2023-03-17T01:56:22.284Z,3.60
2023-03-17T01:57:22.249Z,3.40
2023-03-17T01:58:22.220Z,3.40
2023-03-17T01:59:22.186Z,3.40
2023-03-17T02:00:22.167Z,3.40
2023-03-17T02:01:22.179Z,3.20
2023-03-17T02:02:22.132Z,3.00
2023-03-17T02:03:22.086Z,2.90
2023-03-17T02:04:22.129Z,3.40
2023-03-17T02:05:22.031Z,3.30
2023-03-17T02:06:22.004Z,3.20
2023-03-17T02:07:21.978Z,3.00
2023-03-17T02:08:21.952Z,3.40
2023-03-17T02:09:21.931Z,3.10
2023-03-17T02:10:21.905Z,3.00
2023-03-17T02:11:21.873Z,3.50
2023-03-17T02:12:21.846Z,3.00
2023-03-17T02:13:21.825Z,3.10
2023-03-17T02:14:21.792Z,3.30
2023-03-17T02:15:21.787Z,3.20
2023-03-17T02:16:21.793Z,3.40
2023-03-17T02:17:21.718Z,3.10
2023-03-17T02:18:21.748Z,3.10
2023-03-17T02:19:21.697Z,3.00
2023-03-17T02:20:21.641Z,2.90
2023-03-17T02:21:21.611Z,3.30
2023-03-17T02:22:21.584Z,3.60
2023-03-17T02:23:21.560Z,3.00
2023-03-17T02:24:21.528Z,3.20
2023-03-17T02:25:21.534Z,3.60
2023-03-17T02:26:21.486Z,3.20
2023-03-17T02:27:21.466Z,3.20
2023-03-17T02:28:21.434Z,3.00
2023-03-17T02:29:21.420Z,3.30
2023-03-17T02:30:21.377Z,3.10
2023-03-17T02:31:21.452Z,3.20
2023-03-17T02:32:21.326Z,3.40
2023-03-17T02:33:21.295Z,3.00
2023-03-17T02:34:21.286Z,3.20
2023-03-17T02:35:21.241Z,3.20
2023-03-17T02:36:21.271Z,3.10
2023-03-17T02:37:21.192Z,3.30
2023-03-17T02:38:21.164Z,3.10
2023-03-17T02:39:21.141Z,2.80
2023-03-17T02:40:21.111Z,2.90
2023-03-17T02:41:21.093Z,2.70
2023-03-17T02:42:21.063Z,3.10
2023-03-17T02:43:21.034Z,3.20
2023-03-17T02:44:21.013Z,3.40
2023-03-17T02:45:20.995Z,3.70
2023-03-17T02:46:20.993Z,3.90
2023-03-17T02:47:20.931Z,3.10
2023-03-17T02:48:20.918Z,3.10
2023-03-17T02:49:20.881Z,3.20
2023-03-17T02:50:20.877Z,3.30
2023-03-17T02:51:20.830Z,3.20
2023-03-17T02:52:20.804Z,3.00
2023-03-17T02:53:20.773Z,3.10
2023-03-17T02:54:20.751Z,3.30
2023-03-17T02:55:20.729Z,2.90
2023-03-17T02:56:20.702Z,2.90
2023-03-17T02:57:20.666Z,2.70
2023-03-17T02:58:20.639Z,2.90
2023-03-17T02:59:20.616Z,3.30
2023-03-17T03:00:20.591Z,2.90
2023-03-17T03:01:20.582Z,3.20
2023-03-17T03:02:20.572Z,3.00
2023-03-17T03:03:20.508Z,3.30
2023-03-17T03:04:20.488Z,3.20
2023-03-17T03:05:20.455Z,3.20
2023-03-17T03:06:20.456Z,3.00
2023-03-17T03:07:20.401Z,3.00
2023-03-17T03:08:20.378Z,2.70
2023-03-17T03:09:20.349Z,2.90
2023-03-17T03:10:20.326Z,3.50
2023-03-17T03:11:20.300Z,3.50
2023-03-17T03:12:20.276Z,2.90
2023-03-17T03:13:20.243Z,3.10
2023-03-17T03:14:20.235Z,3.20
2023-03-17T03:15:20.193Z,3.50
2023-03-17T03:16:20.269Z,3.10
2023-03-17T03:17:20.148Z,3.40
2023-03-17T03:18:20.120Z,2.80
2023-03-17T03:19:20.091Z,3.50
2023-03-17T03:20:20.067Z,3.40
2023-03-17T03:21:20.036Z,3.20
2023-03-17T03:22:20.078Z,3.00
2023-03-17T03:23:19.993Z,3.40
2023-03-17T03:24:19.963Z,3.30
2023-03-17T03:25:19.929Z,3.10
2023-03-17T03:26:19.913Z,3.30
2023-03-17T03:27:19.900Z,3.00
2023-03-17T03:28:19.857Z,3.40
2023-03-17T03:29:19.841Z,3.00
2023-03-17T03:30:19.799Z,3.10
2023-03-17T03:31:19.852Z,3.30
2023-03-17T03:32:19.763Z,3.40
2023-03-17T03:33:19.734Z,3.50
2023-03-17T03:34:19.694Z,3.20
2023-03-17T03:35:19.664Z,3.60
2023-03-17T03:36:19.644Z,3.00
2023-03-17T03:37:19.621Z,3.30
2023-03-17T03:38:19.629Z,3.20
2023-03-17T03:39:19.570Z,3.30
2023-03-17T03:40:19.541Z,3.50
2023-03-17T03:41:19.513Z,3.30
2023-03-17T03:42:19.491Z,3.30
2023-03-17T03:43:23.281Z,3.50
2023-03-17T03:44:19.427Z,3.70
2023-03-17T03:45:19.426Z,3.20
2023-03-17T03:46:19.438Z,3.40
2023-03-17T03:47:19.348Z,3.20
2023-03-17T03:48:19.322Z,3.00
2023-03-17T03:49:19.296Z,3.00
2023-03-17T03:50:19.268Z,3.40
2023-03-17T03:51:19.238Z,4.20
2023-03-17T03:52:19.213Z,4.10
2023-03-17T03:53:19.198Z,3.00
2023-03-17T03:54:19.205Z,3.50
2023-03-17T03:55:19.130Z,3.30
2023-03-17T03:56:19.117Z,3.20
2023-03-17T03:57:19.080Z,3.30
2023-03-17T03:58:19.059Z,3.30
2023-03-17T03:59:19.042Z,3.00
2023-03-17T04:00:19.003Z,3.20
2023-03-17T04:01:18.968Z,3.20
2023-03-17T04:02:19.103Z,3.40
2023-03-17T04:03:18.925Z,3.50
2023-03-17T04:04:18.953Z,3.20
2023-03-17T04:05:18.865Z,3.20
2023-03-17T04:06:18.846Z,3.00
2023-03-17T04:07:18.808Z,3.20
2023-03-17T04:08:18.791Z,3.20
2023-03-17T04:09:18.761Z,3.50
2023-03-17T04:10:18.758Z,3.30
2023-03-17T04:11:18.705Z,3.70
2023-03-17T04:12:18.694Z,3.40
2023-03-17T04:13:18.689Z,3.20
2023-03-17T04:14:18.644Z,3.60
2023-03-17T04:15:18.610Z,3.20
2023-03-17T04:16:18.604Z,2.90
2023-03-17T04:17:18.548Z,2.90
2023-03-17T04:18:18.527Z,3.20
2023-03-17T04:19:18.545Z,3.30
2023-03-17T04:20:18.484Z,3.10
2023-03-17T04:21:18.489Z,3.30
2023-03-17T04:22:18.416Z,3.60
2023-03-17T04:23:18.387Z,3.20
2023-03-17T04:24:18.365Z,3.30
2023-03-17T04:25:18.336Z,3.00
2023-03-17T04:26:18.332Z,3.30
2023-03-17T04:27:18.278Z,3.00
2023-03-17T04:28:18.253Z,2.80
2023-03-17T04:29:18.224Z,3.20
2023-03-17T04:30:18.204Z,3.10
2023-03-17T04:31:18.269Z,3.30
2023-03-17T04:32:18.151Z,3.60
2023-03-17T04:33:18.121Z,3.30
2023-03-17T04:34:18.110Z,3.20
2023-03-17T04:35:18.086Z,3.20
2023-03-17T04:36:18.045Z,3.50
2023-03-17T04:37:18.012Z,3.50
2023-03-17T04:38:17.992Z,3.70
2023-03-17T04:39:17.966Z,3.60
2023-03-17T04:40:17.936Z,3.30
2023-03-17T04:41:17.908Z,3.20
2023-03-17T04:42:17.903Z,3.60
2023-03-17T04:43:17.848Z,3.30
2023-03-17T04:44:17.829Z,3.50
2023-03-17T04:45:17.809Z,3.60
2023-03-17T04:46:17.787Z,3.20
2023-03-17T04:47:17.750Z,3.50
2023-03-17T04:48:17.724Z,3.30
2023-03-17T04:49:17.692Z,3.20
2023-03-17T04:50:17.667Z,3.60
2023-03-17T04:51:17.656Z,3.40
2023-03-17T04:52:17.618Z,3.60
2023-03-17T04:53:17.594Z,3.20
2023-03-17T04:54:17.572Z,3.30
2023-03-17T04:55:17.534Z,3.40
2023-03-17T04:56:17.518Z,3.60
2023-03-17T04:57:17.485Z,3.40
2023-03-17T04:58:29.972Z,3.40
2023-03-17T04:59:17.431Z,3.60
2023-03-17T05:00:17.416Z,3.40
2023-03-17T05:01:17.449Z,3.50
2023-03-17T05:02:17.420Z,3.50
2023-03-17T05:03:26.697Z,3.60
2023-03-17T05:04:30.744Z,3.10
2023-03-17T05:05:17.291Z,3.20
2023-03-17T05:06:17.243Z,3.60
2023-03-17T05:07:17.212Z,3.00
2023-03-17T05:08:17.194Z,3.50
2023-03-17T05:09:17.168Z,3.20
2023-03-17T05:10:17.146Z,3.70
2023-03-17T05:11:17.114Z,3.60
2023-03-17T05:12:17.088Z,3.40
2023-03-17T05:13:17.053Z,3.00
2023-03-17T05:14:17.051Z,3.50
2023-03-17T05:15:17.004Z,3.30
2023-03-17T05:16:17.051Z,3.40
2023-03-17T05:17:16.951Z,3.30
2023-03-17T05:18:16.924Z,3.50
2023-03-17T05:19:16.895Z,3.20
2023-03-17T05:20:16.873Z,3.30
2023-03-17T05:21:16.846Z,3.30
2023-03-17T05:22:16.832Z,3.50
2023-03-17T05:23:16.788Z,3.40
2023-03-17T05:24:16.793Z,3.10
2023-03-17T05:25:16.740Z,3.70
2023-03-17T05:26:16.711Z,3.30
2023-03-17T05:27:16.695Z,3.60
2023-03-17T05:28:16.665Z,3.60
2023-03-17T05:29:16.632Z,3.20
2023-03-17T05:30:16.627Z,3.40
2023-03-17T05:31:16.635Z,3.50
2023-03-17T05:32:16.554Z,3.30
2023-03-17T05:33:16.525Z,3.40
2023-03-17T05:34:16.498Z,3.70
2023-03-17T05:35:16.475Z,2.90
2023-03-17T05:36:16.451Z,3.20
2023-03-17T05:37:16.423Z,3.50
2023-03-17T05:38:16.396Z,3.60
2023-03-17T05:39:16.367Z,3.80
2023-03-17T05:40:16.354Z,3.80
2023-03-17T05:41:16.316Z,3.30
2023-03-17T05:42:16.286Z,4.10
2023-03-17T05:43:16.258Z,3.60
2023-03-17T05:44:16.237Z,3.60
2023-03-17T05:45:16.202Z,3.80
2023-03-17T05:46:17.995Z,4.00
2023-03-17T05:47:16.161Z,3.50
2023-03-17T05:48:16.129Z,3.80
2023-03-17T05:49:16.109Z,4.60
2023-03-17T05:50:16.080Z,4.10
2023-03-17T05:51:16.051Z,3.50
2023-03-17T05:52:16.029Z,3.60
2023-03-17T05:53:15.995Z,3.30
2023-03-17T05:54:15.971Z,3.60
2023-03-17T05:55:15.942Z,4.60
2023-03-17T05:56:15.938Z,3.70
2023-03-17T05:57:15.884Z,4.30
2023-03-17T05:58:15.860Z,4.40
2023-03-17T05:59:15.835Z,4.30
2023-03-17T06:00:15.812Z,4.10
2023-03-17T06:01:15.780Z,4.10
2023-03-17T06:02:15.825Z,4.20
2023-03-17T06:03:15.868Z,4.30
2023-03-17T06:04:15.712Z,4.60
2023-03-17T06:05:15.686Z,4.50
2023-03-17T06:06:15.651Z,3.60
2023-03-17T06:07:15.622Z,3.80
2023-03-17T06:08:15.600Z,3.50
2023-03-17T06:09:15.568Z,4.00
2023-03-17T06:10:15.540Z,4.20
2023-03-17T06:11:15.528Z,4.00
2023-03-17T06:12:15.497Z,4.40
2023-03-17T06:13:15.487Z,4.30
2023-03-17T06:14:15.438Z,4.50
2023-03-17T06:15:15.401Z,4.50
2023-03-17T06:16:15.472Z,4.50
2023-03-17T06:17:15.358Z,4.10
2023-03-17T06:18:15.355Z,4.70
2023-03-17T06:19:15.305Z,4.80
2023-03-17T06:20:15.274Z,5.90
2023-03-17T06:21:15.249Z,6.10
2023-03-17T06:22:15.222Z,5.80
2023-03-17T06:23:15.192Z,7.50
2023-03-17T06:24:15.177Z,7.60
2023-03-17T06:25:15.187Z,6.90
2023-03-17T06:26:15.120Z,6.80
2023-03-17T06:27:15.081Z,6.60
2023-03-17T06:28:15.064Z,6.40
2023-03-17T06:29:15.035Z,6.80
2023-03-17T06:30:15.007Z,6.70
2023-03-17T06:31:15.076Z,5.80
2023-03-17T06:32:20.661Z,5.60
2023-03-17T06:33:14.926Z,5.20
2023-03-17T06:34:14.922Z,5.30
2023-03-17T06:35:14.864Z,5.30
2023-03-17T06:36:14.842Z,5.00
2023-03-17T06:37:14.816Z,5.00
2023-03-17T06:38:14.789Z,4.90
2023-03-17T06:39:14.766Z,4.80
2023-03-17T06:40:14.740Z,4.80
2023-03-17T06:41:14.709Z,4.50
2023-03-17T06:42:14.687Z,4.60
2023-03-17T06:43:14.662Z,4.80
2023-03-17T06:44:14.632Z,4.70
2023-03-17T06:45:14.615Z,5.00
2023-03-17T06:46:14.619Z,4.90
2023-03-17T06:47:14.549Z,4.60
2023-03-17T06:48:14.536Z,5.30
2023-03-17T06:49:14.490Z,4.70
2023-03-17T06:50:14.490Z,5.00
2023-03-17T06:51:14.441Z,4.30
2023-03-17T06:52:14.414Z,5.40
2023-03-17T06:53:14.382Z,4.20
2023-03-17T06:54:14.374Z,3.90
2023-03-17T06:55:14.340Z,3.60
2023-03-17T06:56:28.908Z,3.60
2023-03-17T06:57:14.279Z,3.60
2023-03-17T06:58:14.255Z,3.40
2023-03-17T06:59:14.229Z,3.50
2023-03-17T07:00:14.348Z,3.20
2023-03-17T07:01:14.174Z,3.70
2023-03-17T07:02:14.148Z,3.80
2023-03-17T07:03:14.112Z,3.80
2023-03-17T07:04:14.145Z,5.30
2023-03-17T07:05:14.061Z,6.20
2023-03-17T07:06:14.057Z,7.40
2023-03-17T07:07:14.022Z,7.50
2023-03-17T07:08:13.982Z,7.70
2023-03-17T07:09:13.961Z,6.70
2023-03-17T07:10:13.932Z,5.80
2023-03-17T07:11:13.925Z,5.70
2023-03-17T07:12:13.877Z,5.20
2023-03-17T07:13:13.852Z,4.80
2023-03-17T07:14:13.833Z,4.60
2023-03-17T07:15:13.809Z,4.30
2023-03-17T07:16:13.785Z,4.30
2023-03-17T07:17:13.751Z,3.80
2023-03-17T07:18:13.719Z,3.70
2023-03-17T07:19:13.694Z,3.70
2023-03-17T07:20:13.672Z,3.60
2023-03-17T07:21:13.651Z,3.40
2023-03-17T07:22:13.657Z,4.00
2023-03-17T07:23:13.594Z,3.30
2023-03-17T07:24:13.570Z,3.90
2023-03-17T07:25:13.555Z,3.20
2023-03-17T07:26:13.527Z,3.80
2023-03-17T07:27:13.512Z,3.80
2023-03-17T07:28:13.461Z,4.00
2023-03-17T07:29:13.467Z,3.60
2023-03-17T07:30:13.401Z,3.60
2023-03-17T07:31:13.415Z,3.90
2023-03-17T07:32:13.345Z,3.80
2023-03-17T07:33:13.436Z,3.80
2023-03-17T07:34:13.297Z,3.30
2023-03-17T07:35:13.281Z,3.50
2023-03-17T07:36:13.239Z,3.40
2023-03-17T07:37:13.243Z,3.60
2023-03-17T07:38:13.250Z,3.60
2023-03-17T07:39:13.172Z,3.80
2023-03-17T07:40:13.133Z,3.80
2023-03-17T07:41:13.115Z,3.90
2023-03-17T07:42:13.120Z,3.60
2023-03-17T07:43:13.057Z,4.10
2023-03-17T07:44:13.027Z,3.70
2023-03-17T07:45:13.018Z,3.80
2023-03-17T07:46:13.061Z,3.60
2023-03-17T07:47:12.950Z,3.60
2023-03-17T07:48:12.933Z,3.50
2023-03-17T07:49:12.964Z,3.30
2023-03-17T07:50:12.879Z,3.30
2023-03-17T07:51:12.857Z,3.20
2023-03-17T07:52:12.872Z,3.00
2023-03-17T07:53:12.840Z,3.30
2023-03-17T07:54:15.008Z,3.40
2023-03-17T07:55:12.820Z,3.60
2023-03-17T07:56:12.722Z,3.40
2023-03-17T07:57:12.698Z,2.80
2023-03-17T07:58:15.185Z,3.20
2023-03-17T07:59:12.639Z,2.90
2023-03-17T08:00:12.658Z,2.80
2023-03-17T08:01:12.635Z,2.90
2023-03-17T08:02:12.636Z,3.00
2023-03-17T08:03:12.591Z,2.60
2023-03-17T08:04:12.513Z,2.80
2023-03-17T08:05:13.266Z,2.70
2023-03-17T08:06:12.455Z,2.50
2023-03-17T08:07:12.446Z,2.80
2023-03-17T08:08:12.443Z,2.70
2023-03-17T08:09:12.403Z,2.60
2023-03-17T08:10:12.419Z,2.70
2023-03-17T08:11:12.326Z,3.40
2023-03-17T08:12:12.304Z,2.60
2023-03-17T08:13:12.287Z,3.00
2023-03-17T08:14:12.246Z,2.50
2023-03-17T08:15:12.237Z,2.40
2023-03-17T08:16:12.229Z,2.80
2023-03-17T08:17:12.206Z,2.80
2023-03-17T08:18:12.146Z,2.50
2023-03-17T08:19:12.138Z,2.80
2023-03-17T08:20:12.146Z,2.90
2023-03-17T08:21:13.526Z,2.90
2023-03-17T08:22:12.095Z,3.00
2023-03-17T08:23:12.035Z,2.80
2023-03-17T08:24:12.012Z,2.90
2023-03-17T08:25:11.990Z,2.70
2023-03-17T08:26:11.962Z,2.70
2023-03-17T08:27:11.963Z,3.10
2023-03-17T08:28:11.894Z,2.90
2023-03-17T08:29:11.868Z,3.20
2023-03-17T08:30:11.843Z,3.10
2023-03-17T08:31:12.646Z,2.80
2023-03-17T08:32:11.813Z,3.00
2023-03-17T08:33:11.901Z,3.20
2023-03-17T08:34:11.749Z,3.00
2023-03-17T08:35:11.719Z,3.10
2023-03-17T08:36:11.716Z,2.60
2023-03-17T08:37:11.766Z,2.70
2023-03-17T08:38:11.657Z,2.50
2023-03-17T08:39:11.614Z,2.90
2023-03-17T08:40:11.590Z,2.50
2023-03-17T08:41:11.567Z,3.40
2023-03-17T08:42:11.571Z,3.20
2023-03-17T08:43:11.520Z,3.10
2023-03-17T08:44:11.488Z,3.30
2023-03-17T08:45:11.475Z,2.80
2023-03-17T08:46:11.474Z,3.10
2023-03-17T08:47:11.419Z,2.80
2023-03-17T08:48:11.389Z,3.00
2023-03-17T08:49:11.388Z,2.80
2023-03-17T08:50:11.352Z,3.30
2023-03-17T08:51:11.311Z,3.10
2023-03-17T08:52:11.281Z,3.10
2023-03-17T08:53:11.264Z,2.90
2023-03-17T08:54:11.236Z,2.80
2023-03-17T08:55:11.220Z,3.10
2023-03-17T08:56:11.189Z,2.80
2023-03-17T08:57:11.167Z,2.90
2023-03-17T08:58:11.161Z,2.60
2023-03-17T08:59:11.119Z,3.90
2023-03-17T09:00:11.172Z,2.70
2023-03-17T09:01:11.146Z,2.70
2023-03-17T09:02:11.132Z,2.80
2023-03-17T09:03:11.017Z,2.70
2023-03-17T09:04:10.988Z,3.10
2023-03-17T09:05:10.991Z,2.70
2023-03-17T09:06:10.954Z,2.90
2023-03-17T09:07:10.912Z,3.00
2023-03-17T09:08:10.935Z,2.60
2023-03-17T09:09:10.895Z,2.50
2023-03-17T09:10:10.855Z,2.40
2023-03-17T09:11:10.815Z,2.90
2023-03-17T09:12:10.788Z,2.50
2023-03-17T09:13:10.769Z,3.00
2023-03-17T09:14:10.757Z,2.30
2023-03-17T09:15:10.713Z,2.30
2023-03-17T09:16:10.759Z,2.20
2023-03-17T09:17:10.665Z,2.20
2023-03-17T09:18:10.639Z,2.10
2023-03-17T09:19:10.614Z,2.30
2023-03-17T09:20:10.584Z,2.10
2023-03-17T09:21:10.567Z,2.00
2023-03-17T09:22:10.544Z,2.90
2023-03-17T09:23:10.525Z,2.40
2023-03-17T09:24:10.493Z,2.50
2023-03-17T09:25:10.468Z,2.40
2023-03-17T09:26:10.447Z,2.40
2023-03-17T09:27:10.416Z,2.10
2023-03-17T09:28:10.393Z,2.30
2023-03-17T09:29:10.372Z,2.40
2023-03-17T09:30:10.370Z,2.20
2023-03-17T09:31:10.335Z,2.30
2023-03-17T09:32:10.311Z,2.50
2023-03-17T09:33:10.403Z,2.40
2023-03-17T09:34:10.245Z,2.60
2023-03-17T09:35:10.220Z,2.30
2023-03-17T09:36:10.397Z,2.40
2023-03-17T09:37:10.171Z,2.50
2023-03-17T09:38:10.150Z,2.70
2023-03-17T09:39:10.124Z,2.30
2023-03-17T09:40:10.104Z,2.60
2023-03-17T09:41:10.077Z,2.20
2023-03-17T09:42:10.050Z,2.00
2023-03-17T09:43:10.031Z,2.40
2023-03-17T09:44:10.005Z,2.20
2023-03-17T09:45:09.986Z,2.20
2023-03-17T09:46:10.029Z,2.30
2023-03-17T09:47:09.929Z,2.50
2023-03-17T09:48:09.925Z,2.50
2023-03-17T09:49:09.886Z,2.20
2023-03-17T09:50:09.860Z,2.00
2023-03-17T09:51:09.841Z,2.70
2023-03-17T09:52:09.805Z,2.10
2023-03-17T09:53:09.784Z,2.70
2023-03-17T09:54:09.763Z,2.30
2023-03-17T09:55:09.743Z,1.90
2023-03-17T09:56:09.720Z,2.00
2023-03-17T09:57:09.707Z,2.30
2023-03-17T09:58:09.682Z,2.40
2023-03-17T09:59:09.649Z,2.80
2023-03-17T10:00:09.619Z,2.20
2023-03-17T10:01:09.598Z,2.40
2023-03-17T10:02:09.696Z,2.10
2023-03-17T10:03:09.546Z,2.80
2023-03-17T10:04:09.521Z,2.30
2023-03-17T10:05:09.544Z,2.10
2023-03-17T10:06:11.455Z,2.00
2023-03-17T10:07:09.453Z,2.30
2023-03-17T10:08:26.944Z,2.60
2023-03-17T10:09:09.408Z,2.50
2023-03-17T10:10:09.372Z,2.50
2023-03-17T10:11:09.359Z,2.30
2023-03-17T10:12:09.326Z,2.50
2023-03-17T10:13:09.312Z,2.30
2023-03-17T10:14:09.282Z,2.60
2023-03-17T10:15:09.262Z,2.70
2023-03-17T10:16:09.255Z,2.80
2023-03-17T10:17:09.224Z,2.30
2023-03-17T10:18:09.215Z,2.40
2023-03-17T10:19:09.171Z,2.30
2023-03-17T10:20:09.179Z,2.40
2023-03-17T10:21:09.133Z,2.30
2023-03-17T10:22:09.104Z,2.60
2023-03-17T10:23:09.076Z,2.60
2023-03-17T10:24:09.049Z,2.60
2023-03-17T10:25:09.022Z,2.50
2023-03-17T10:26:08.996Z,2.60
2023-03-17T10:27:08.983Z,2.60
2023-03-17T10:28:09.263Z,2.50
2023-03-17T10:29:08.932Z,2.60
2023-03-17T10:30:08.905Z,2.80
2023-03-17T10:31:08.947Z,2.30
2023-03-17T10:32:08.862Z,2.40
2023-03-17T10:33:08.982Z,3.40
2023-03-17T10:34:08.836Z,2.30
2023-03-17T10:35:08.809Z,2.40
2023-03-17T10:36:08.765Z,2.60
2023-03-17T10:37:08.742Z,2.40
2023-03-17T10:38:14.276Z,2.30
2023-03-17T10:39:08.697Z,2.50
2023-03-17T10:40:08.669Z,2.50
2023-03-17T10:41:08.647Z,2.60
2023-03-17T10:42:08.622Z,2.70
2023-03-17T10:43:08.625Z,3.20
2023-03-17T10:44:08.584Z,2.80
2023-03-17T10:45:08.556Z,2.60
2023-03-17T10:46:08.530Z,2.30
2023-03-17T10:47:08.538Z,2.70
2023-03-17T10:48:08.483Z,2.50
2023-03-17T10:49:08.493Z,2.90
2023-03-17T10:50:08.457Z,2.20
2023-03-17T10:51:08.424Z,2.60
2023-03-17T10:52:08.397Z,2.60
2023-03-17T10:53:08.382Z,2.70
2023-03-17T10:54:08.342Z,2.60
2023-03-17T10:55:08.321Z,2.60
2023-03-17T10:56:08.313Z,2.70
2023-03-17T10:57:08.280Z,2.30
2023-03-17T10:58:08.252Z,2.50
2023-03-17T10:59:08.342Z,2.60
2023-03-17T11:00:08.202Z,3.20
2023-03-17T11:01:08.377Z,2.40
2023-03-17T11:02:08.158Z,2.50
2023-03-17T11:03:08.143Z,2.90
2023-03-17T11:04:08.160Z,2.70
2023-03-17T11:05:08.103Z,2.60
2023-03-17T11:06:08.101Z,2.90
2023-03-17T11:07:08.050Z,2.80
2023-03-17T11:08:08.038Z,2.70
2023-03-17T11:09:08.012Z,2.50
2023-03-17T11:10:07.975Z,2.60
2023-03-17T11:11:07.970Z,2.70
2023-03-17T11:12:07.936Z,2.70
2023-03-17T11:13:07.932Z,2.60
2023-03-17T11:14:07.893Z,3.10
2023-03-17T11:15:07.873Z,2.60
2023-03-17T11:16:07.892Z,3.00
2023-03-17T11:17:07.828Z,2.50
2023-03-17T11:18:07.801Z,2.90
2023-03-17T11:19:07.777Z,2.60
2023-03-17T11:20:07.755Z,2.60
2023-03-17T11:21:07.735Z,2.90
2023-03-17T11:22:07.731Z,2.40
2023-03-17T11:23:07.698Z,2.60
2023-03-17T11:24:07.668Z,2.40
2023-03-17T11:25:07.641Z,2.60
2023-03-17T11:26:07.624Z,2.50
2023-03-17T11:27:07.593Z,3.00
2023-03-17T11:28:07.575Z,2.40
2023-03-17T11:29:07.549Z,2.70
2023-03-17T11:30:07.552Z,2.80
2023-03-17T11:31:07.516Z,2.20
2023-03-17T11:32:07.544Z,2.80
2023-03-17T11:33:07.510Z,2.50
2023-03-17T11:34:07.438Z,2.70
2023-03-17T11:35:07.425Z,2.40
2023-03-17T11:36:07.426Z,2.70
2023-03-17T11:37:07.366Z,2.80
2023-03-17T11:38:07.371Z,2.70
2023-03-17T11:39:07.324Z,2.60
2023-03-17T11:40:07.314Z,2.40
2023-03-17T11:41:07.279Z,2.60
2023-03-17T11:42:07.312Z,2.50
2023-03-17T11:43:07.242Z,2.90
2023-03-17T11:44:07.219Z,2.60
2023-03-17T11:45:07.206Z,2.50
2023-03-17T11:46:07.248Z,2.90
2023-03-17T11:47:07.165Z,2.50
2023-03-17T11:48:07.127Z,2.60
2023-03-17T11:49:07.100Z,2.30
2023-03-17T11:50:07.078Z,2.40
2023-03-17T11:51:07.060Z,2.60
2023-03-17T11:52:07.034Z,2.60
2023-03-17T11:53:07.008Z,2.60
2023-03-17T11:54:07.011Z,2.40
2023-03-17T11:55:06.966Z,2.40
2023-03-17T11:56:06.952Z,2.80
2023-03-17T11:57:06.924Z,2.30
2023-03-17T11:58:06.903Z,2.60
2023-03-17T11:59:06.890Z,2.10
2023-03-17T12:00:06.871Z,2.30
2023-03-17T12:01:06.829Z,2.60
2023-03-17T12:02:06.823Z,2.70
2023-03-17T12:03:06.812Z,2.80
2023-03-17T12:04:06.922Z,2.70
2023-03-17T12:05:06.749Z,2.40
2023-03-17T12:06:06.719Z,2.60
2023-03-17T12:07:06.696Z,2.50
2023-03-17T12:08:06.688Z,2.50
2023-03-17T12:09:06.663Z,2.40
2023-03-17T12:10:06.655Z,2.90
2023-03-17T12:11:06.612Z,2.70
2023-03-17T12:12:06.588Z,2.20
2023-03-17T12:13:06.562Z,2.20
2023-03-17T12:14:06.544Z,2.00
2023-03-17T12:15:06.522Z,2.80
2023-03-17T12:16:06.644Z,2.90
2023-03-17T12:17:06.506Z,2.30
2023-03-17T12:18:06.454Z,2.50
2023-03-17T12:19:06.434Z,2.60
2023-03-17T12:20:06.417Z,2.30
2023-03-17T12:21:06.388Z,2.50
2023-03-17T12:22:06.368Z,2.60
2023-03-17T12:23:06.339Z,2.60
2023-03-17T12:24:06.326Z,2.50
2023-03-17T12:25:06.299Z,2.20
2023-03-17T12:26:06.295Z,2.30
2023-03-17T12:27:06.258Z,2.50
2023-03-17T12:28:06.234Z,2.40
2023-03-17T12:29:06.210Z,2.60
2023-03-17T12:30:06.193Z,3.10
2023-03-17T12:31:06.241Z,2.60
2023-03-17T12:32:06.143Z,2.30
2023-03-17T12:33:06.173Z,2.90
2023-03-17T12:34:06.102Z,2.70
2023-03-17T12:35:06.084Z,2.10
2023-03-17T12:36:06.142Z,2.60
2023-03-17T12:37:06.031Z,2.80
2023-03-17T12:38:06.003Z,2.90
2023-03-17T12:39:05.996Z,2.10
2023-03-17T12:40:05.971Z,2.20
2023-03-17T12:41:05.952Z,2.40
2023-03-17T12:42:05.934Z,2.30
2023-03-17T12:43:05.896Z,2.40
2023-03-17T12:44:05.880Z,2.80
2023-03-17T12:45:05.854Z,2.30
2023-03-17T12:46:05.890Z,2.30
2023-03-17T12:47:05.809Z,2.50
2023-03-17T12:48:05.785Z,2.40
2023-03-17T12:49:05.769Z,2.50
2023-03-17T12:50:05.816Z,2.10
2023-03-17T12:51:05.724Z,2.40
2023-03-17T12:52:05.709Z,2.60
2023-03-17T12:53:05.683Z,2.40
2023-03-17T12:54:05.659Z,3.00
2023-03-17T12:55:05.633Z,2.30
2023-03-17T12:56:05.620Z,2.30
2023-03-17T12:57:05.691Z,2.60
2023-03-17T12:58:05.576Z,2.50
2023-03-17T12:59:05.576Z,2.40
2023-03-17T13:00:05.585Z,2.30
2023-03-17T13:01:05.505Z,2.30
2023-03-17T13:02:05.533Z,2.30
2023-03-17T13:03:05.529Z,2.50
2023-03-17T13:04:05.449Z,2.20
2023-03-17T13:05:05.416Z,2.40
2023-03-17T13:06:05.402Z,2.30
2023-03-17T13:07:05.385Z,2.40
2023-03-17T13:08:05.345Z,2.30
2023-03-17T13:09:05.335Z,2.40
2023-03-17T13:10:05.303Z,2.60
2023-03-17T13:11:05.295Z,2.10
2023-03-17T13:12:05.256Z,2.00
2023-03-17T13:13:05.234Z,2.00
2023-03-17T13:14:05.230Z,2.00
2023-03-17T13:15:05.204Z,2.20
2023-03-17T13:16:05.219Z,2.20
2023-03-17T13:17:05.152Z,2.20
2023-03-17T13:18:05.129Z,2.20